Terminal Aerodrome Forecast
Issued by NWS Topeka, KS

Home | Current Version | Previous Version | Text Only | Print | Product List | Glossary Off
Versions: 1 2 3 4 5 6 7 8 9 10 11 12 13 14 15 16

000
FTUS43 KTOP 240100 AAA
TAFTOP
TAF AMD
KTOP 240131Z 2402/2424 33014G24KT 6SM -RA BR BKN025 OVC035
     FM240300 30014G22KT P6SM BKN035=

USA.gov is the U.S. government's official web portal to all federal, state and local government web resources and services.